createdAt,value
2018-09-17T00:02:27.022Z,13.21
2018-09-17T00:04:57.480Z,13.20
2018-09-17T00:07:27.856Z,13.14
2018-09-17T00:09:58.412Z,13.10
2018-09-17T00:12:28.688Z,13.10
2018-09-17T00:14:59.169Z,13.13
2018-09-17T00:17:29.605Z,13.11
2018-09-17T00:20:00.114Z,13.09
2018-09-17T00:22:30.378Z,13.03
2018-09-17T00:25:00.683Z,12.95
2018-09-17T00:27:30.919Z,12.87
2018-09-17T00:30:01.377Z,12.87
2018-09-17T00:32:31.612Z,12.85
2018-09-17T00:35:02.006Z,12.81
2018-09-17T00:37:32.385Z,12.78
2018-09-17T00:40:02.871Z,12.72
2018-09-17T00:42:33.048Z,12.70
2018-09-17T00:45:03.419Z,12.65
2018-09-17T00:47:33.868Z,12.60
2018-09-17T00:50:04.459Z,12.55
2018-09-17T00:52:34.952Z,12.52
2018-09-17T00:55:05.327Z,12.48
2018-09-17T00:57:35.766Z,12.44
2018-09-17T01:00:06.205Z,12.42
2018-09-17T01:02:36.776Z,12.37
2018-09-17T01:05:07.471Z,12.33
2018-09-17T01:07:37.844Z,12.26
2018-09-17T01:10:08.297Z,12.15
2018-09-17T01:12:38.602Z,12.12
2018-09-17T01:15:08.979Z,12.02
2018-09-17T01:17:39.343Z,12.09
2018-09-17T01:20:10.052Z,12.08
2018-09-17T01:22:40.270Z,12.03
2018-09-17T01:25:10.723Z,11.96
2018-09-17T01:27:41.179Z,11.95
2018-09-17T01:30:12.168Z,11.92
2018-09-17T01:32:43.518Z,11.87
2018-09-17T01:35:14.034Z,11.85
2018-09-17T01:37:44.592Z,11.83
2018-09-17T01:40:14.907Z,11.75
2018-09-17T01:42:45.487Z,11.70
2018-09-17T01:45:15.908Z,11.68
2018-09-17T01:47:46.241Z,11.65
2018-09-17T01:50:16.563Z,11.63
2018-09-17T01:52:47.045Z,11.60
2018-09-17T01:55:17.455Z,11.55
2018-09-17T01:57:48.049Z,11.60
2018-09-17T02:00:18.525Z,11.52
2018-09-17T02:02:48.844Z,11.49
2018-09-17T02:05:19.203Z,11.49
2018-09-17T02:07:49.568Z,11.47
2018-09-17T02:10:19.985Z,11.48
2018-09-17T02:12:50.252Z,11.42
2018-09-17T02:15:20.438Z,11.44
2018-09-17T02:17:50.762Z,11.40
2018-09-17T02:20:21.236Z,11.37
2018-09-17T02:22:51.668Z,11.26
2018-09-17T02:25:22.116Z,11.27
2018-09-17T02:27:52.720Z,11.22
2018-09-17T02:30:23.116Z,11.12
2018-09-17T02:32:54.271Z,11.17
2018-09-17T02:35:24.608Z,11.11
2018-09-17T02:37:55.132Z,11.05
2018-09-17T02:40:25.428Z,11.07
2018-09-17T02:42:55.948Z,11.23
2018-09-17T02:45:26.403Z,11.23
2018-09-17T02:47:56.858Z,11.25
2018-09-17T02:50:27.157Z,11.22
2018-09-17T02:52:57.650Z,11.10
2018-09-17T02:55:28.044Z,11.06
2018-09-17T02:57:58.495Z,10.97
2018-09-17T03:00:28.839Z,10.92
2018-09-17T03:02:59.215Z,10.91
2018-09-17T03:05:29.626Z,10.87
2018-09-17T03:08:00.109Z,10.79
2018-09-17T03:10:30.696Z,10.79
2018-09-17T03:13:01.173Z,10.74
2018-09-17T03:15:48.944Z,10.82
2018-09-17T03:18:36.823Z,10.79
2018-09-17T03:21:08.195Z,10.80
2018-09-17T03:23:39.148Z,10.75
2018-09-17T03:26:09.660Z,10.72
2018-09-17T03:28:39.970Z,10.74
2018-09-17T03:31:10.557Z,10.84
2018-09-17T03:33:41.102Z,10.84
2018-09-17T03:36:11.506Z,10.86
2018-09-17T03:38:49.498Z,10.87
2018-09-17T03:41:20.702Z,10.77
2018-09-17T03:43:52.475Z,10.81
2018-09-17T03:46:22.861Z,10.79
2018-09-17T03:48:53.433Z,10.75
2018-09-17T03:51:23.840Z,10.75
2018-09-17T03:53:54.315Z,10.75
2018-09-17T03:56:24.548Z,10.70
2018-09-17T03:58:54.974Z,10.60
2018-09-17T04:01:25.304Z,10.57
2018-09-17T04:03:55.751Z,10.58
2018-09-17T04:06:26.257Z,10.64
2018-09-17T04:08:56.823Z,10.56
2018-09-17T04:11:27.530Z,10.61
2018-09-17T04:13:58.251Z,10.65
2018-09-17T04:16:28.506Z,10.71
2018-09-17T04:19:00.448Z,10.73
2018-09-17T04:21:30.887Z,10.72
2018-09-17T04:24:01.162Z,10.67
2018-09-17T04:26:31.369Z,10.69
2018-09-17T04:29:01.888Z,10.66
2018-09-17T04:31:32.257Z,10.58
2018-09-17T04:34:02.735Z,10.52
2018-09-17T04:36:33.171Z,10.47
2018-09-17T04:39:04.323Z,10.48
2018-09-17T04:41:35.590Z,10.44
2018-09-17T04:44:06.004Z,10.48
2018-09-17T04:46:36.408Z,10.60
2018-09-17T04:49:07.079Z,10.46
2018-09-17T04:51:37.495Z,10.46
2018-09-17T04:54:07.980Z,10.49
2018-09-17T04:56:38.590Z,10.57
2018-09-17T04:59:09.041Z,10.66
2018-09-17T05:01:39.438Z,10.67
2018-09-17T05:04:09.849Z,10.75
2018-09-17T05:06:40.277Z,10.90
2018-09-17T05:09:10.908Z,10.91
2018-09-17T05:11:41.136Z,11.11
2018-09-17T05:14:11.502Z,11.12
2018-09-17T05:16:41.869Z,11.09
2018-09-17T05:19:12.265Z,11.25
2018-09-17T05:21:43.572Z,11.41
2018-09-17T05:24:14.162Z,11.37
2018-09-17T05:26:45.078Z,11.52
2018-09-17T05:29:15.376Z,11.55
2018-09-17T05:31:45.716Z,11.61
2018-09-17T05:34:15.947Z,11.69
2018-09-17T05:36:46.364Z,11.99
2018-09-17T05:39:17.011Z,12.25
2018-09-17T05:41:47.409Z,12.50
2018-09-17T05:44:18.114Z,12.41
2018-09-17T05:46:48.604Z,12.56
2018-09-17T05:49:19.064Z,12.75
2018-09-17T05:51:49.382Z,13.10
2018-09-17T05:54:19.659Z,13.50
2018-09-17T05:56:50.156Z,13.13
2018-09-17T05:59:20.479Z,13.33
2018-09-17T06:01:51.459Z,14.39
2018-09-17T06:04:21.943Z,15.38
2018-09-17T06:06:52.474Z,15.80
2018-09-17T06:09:22.681Z,15.73
2018-09-17T06:11:53.031Z,16.06
2018-09-17T06:14:23.497Z,16.31
2018-09-17T06:16:54.002Z,16.20
2018-09-17T06:19:24.406Z,16.24
2018-09-17T06:21:54.728Z,16.09
2018-09-17T06:24:25.092Z,16.32
2018-09-17T06:26:55.392Z,16.53
2018-09-17T06:29:25.641Z,16.42
2018-09-17T06:31:56.115Z,16.80
2018-09-17T06:34:26.720Z,16.74
2018-09-17T06:39:27.912Z,17.35
2018-09-17T06:41:58.418Z,17.49
2018-09-17T06:44:28.740Z,17.84
2018-09-17T06:46:59.219Z,17.86
2018-09-17T06:49:29.715Z,18.17
2018-09-17T06:52:00.220Z,18.09
2018-09-17T06:54:30.686Z,18.21
2018-09-17T06:57:01.868Z,18.23
2018-09-17T06:59:32.342Z,18.17
2018-09-17T07:02:03.109Z,18.29
2018-09-17T07:04:33.700Z,17.78
2018-09-17T07:07:04.161Z,17.46
2018-09-17T07:09:34.483Z,17.30
2018-09-17T07:12:04.873Z,17.30
2018-09-17T07:14:35.163Z,17.31
2018-09-17T07:17:05.761Z,17.27
2018-09-17T07:19:36.117Z,17.26
2018-09-17T07:22:06.480Z,17.18
2018-09-17T07:24:36.903Z,17.32
2018-09-17T07:27:07.436Z,17.50
2018-09-17T07:29:37.863Z,17.94
2018-09-17T07:32:08.316Z,18.36
2018-09-17T07:34:38.676Z,18.86
2018-09-17T07:37:09.286Z,19.66
2018-09-17T07:39:39.729Z,19.88
2018-09-17T07:42:09.951Z,20.67
2018-09-17T07:44:40.317Z,20.85
2018-09-17T07:47:10.836Z,21.33
2018-09-17T07:49:41.188Z,21.20
2018-09-17T07:52:11.692Z,21.38
2018-09-17T07:54:42.107Z,21.71
2018-09-17T07:57:12.419Z,21.76
2018-09-17T07:59:42.796Z,22.35
2018-09-17T08:02:13.187Z,22.26
2018-09-17T08:04:43.569Z,22.30
2018-09-17T08:07:13.916Z,23.17
2018-09-17T08:09:44.405Z,24.19
2018-09-17T08:12:14.793Z,25.32
2018-09-17T08:14:45.216Z,25.53
2018-09-17T08:17:15.788Z,25.81
2018-09-17T08:19:46.226Z,25.88
2018-09-17T08:22:16.412Z,25.34
2018-09-17T08:24:46.809Z,24.44
2018-09-17T08:27:17.265Z,23.90
2018-09-17T08:29:47.675Z,24.20
2018-09-17T08:32:18.691Z,24.20
2018-09-17T08:34:49.047Z,23.95
2018-09-17T08:37:19.313Z,23.97
2018-09-17T08:39:49.765Z,23.94
2018-09-17T08:42:20.259Z,24.68
2018-09-17T08:44:50.800Z,24.95
2018-09-17T08:47:21.255Z,25.56
2018-09-17T08:49:51.679Z,25.79
2018-09-17T08:52:21.893Z,25.71
2018-09-17T08:54:57.479Z,25.68
2018-09-17T08:57:32.729Z,25.72
2018-09-17T09:00:07.953Z,25.62
2018-09-17T09:02:43.212Z,25.33
2018-09-17T09:05:18.949Z,25.54
2018-09-17T09:07:52.841Z,25.28
2018-09-17T09:10:28.869Z,25.51
2018-09-17T09:13:04.348Z,25.12
2018-09-17T09:15:39.680Z,25.54
2018-09-17T09:18:10.597Z,25.57
2018-09-17T09:20:40.868Z,25.34
2018-09-17T09:23:11.185Z,25.77
2018-09-17T09:25:41.689Z,25.61
2018-09-17T09:28:12.152Z,26.31
2018-09-17T09:30:42.657Z,26.23
2018-09-17T09:33:13.139Z,25.67
2018-09-17T09:35:43.600Z,25.87
2018-09-17T09:38:13.999Z,25.74
2018-09-17T09:40:44.456Z,25.90
2018-09-17T09:43:14.840Z,25.81
2018-09-17T09:45:45.298Z,25.84
2018-09-17T09:48:15.565Z,25.84
2018-09-17T09:50:46.048Z,25.58
2018-09-17T09:53:16.437Z,25.96
2018-09-17T09:55:47.055Z,25.71
2018-09-17T09:58:17.439Z,25.98
2018-09-17T10:00:52.722Z,26.22
2018-09-17T10:03:27.280Z,25.99
2018-09-17T10:05:57.737Z,26.17
2018-09-17T10:08:28.040Z,25.79
2018-09-17T10:11:03.365Z,25.06
2018-09-17T10:13:38.860Z,25.42
2018-09-17T10:16:14.173Z,25.83
2018-09-17T10:18:49.483Z,25.62
2018-09-17T10:21:20.148Z,26.13
2018-09-17T10:23:50.482Z,26.41
2018-09-17T10:26:20.984Z,26.22
2018-09-17T10:28:51.216Z,26.46
2018-09-17T10:31:21.679Z,26.10
2018-09-17T10:33:51.986Z,26.30
2018-09-17T10:36:22.868Z,26.18
2018-09-17T10:38:53.368Z,25.93
2018-09-17T10:41:23.745Z,26.30
2018-09-17T10:43:54.107Z,26.12
2018-09-17T10:46:24.418Z,26.62
2018-09-17T10:48:55.007Z,26.49
2018-09-17T10:51:25.382Z,26.10
2018-09-17T10:53:55.780Z,26.70
2018-09-17T10:56:26.206Z,27.13
2018-09-17T10:58:57.150Z,27.00
2018-09-17T11:01:27.574Z,26.92
2018-09-17T11:03:57.942Z,26.79
2018-09-17T11:06:28.733Z,27.14
2018-09-17T11:08:59.155Z,27.13
2018-09-17T11:11:29.404Z,27.27
2018-09-17T11:13:59.787Z,27.17
2018-09-17T11:16:30.283Z,27.02
2018-09-17T11:19:00.776Z,27.11
2018-09-17T11:21:31.245Z,26.85
2018-09-17T11:24:01.604Z,27.18
2018-09-17T11:26:32.106Z,27.01
2018-09-17T11:29:02.651Z,26.48
2018-09-17T11:31:33.231Z,26.76
2018-09-17T11:34:03.658Z,26.96
2018-09-17T11:36:34.028Z,27.14
2018-09-17T11:39:05.700Z,27.09
2018-09-17T11:41:36.108Z,26.86
2018-09-17T11:44:06.513Z,26.96
2018-09-17T11:46:38.529Z,26.86
2018-09-17T11:49:09.139Z,26.99
2018-09-17T11:51:40.060Z,27.00
2018-09-17T11:54:10.620Z,27.10
2018-09-17T11:56:41.280Z,27.33
2018-09-17T11:59:11.635Z,27.26
2018-09-17T12:01:47.160Z,27.32
2018-09-17T12:04:21.627Z,27.11
2018-09-17T12:07:56.972Z,27.09
2018-09-17T12:10:27.295Z,27.42
2018-09-17T12:12:57.847Z,27.38
2018-09-17T12:15:28.114Z,27.49
2018-09-17T12:17:58.369Z,27.45
2018-09-17T12:20:28.789Z,27.52
2018-09-17T12:22:59.164Z,27.56
2018-09-17T12:25:29.517Z,27.52
2018-09-17T12:28:01.155Z,27.61
2018-09-17T12:30:31.638Z,27.72
2018-09-17T12:33:02.384Z,27.35
2018-09-17T12:35:32.817Z,27.56
2018-09-17T12:38:03.091Z,27.59
2018-09-17T12:40:33.480Z,27.52
2018-09-17T12:43:03.997Z,27.56
2018-09-17T12:45:36.347Z,27.35
2018-09-17T12:48:06.818Z,27.31
2018-09-17T12:50:37.161Z,27.38
2018-09-17T12:53:07.531Z,27.39
2018-09-17T12:55:37.782Z,27.54
2018-09-17T12:58:08.232Z,27.43
2018-09-17T13:00:38.772Z,27.40
2018-09-17T13:03:09.137Z,27.66
2018-09-17T13:05:39.588Z,27.69
2018-09-17T13:08:09.963Z,27.46
2018-09-17T13:10:40.381Z,27.56
2018-09-17T13:13:10.727Z,27.65
2018-09-17T13:15:46.071Z,27.79
2018-09-17T13:18:16.321Z,27.90
2018-09-17T13:20:46.680Z,27.84
2018-09-17T13:23:17.028Z,27.67
2018-09-17T13:25:47.504Z,27.61
2018-09-17T13:28:18.151Z,27.49
2018-09-17T13:30:48.618Z,27.37
2018-09-17T13:33:18.873Z,27.50
2018-09-17T13:35:49.244Z,27.43
2018-09-17T13:38:19.657Z,27.44
2018-09-17T13:40:50.341Z,27.63
2018-09-17T13:43:20.808Z,27.51
2018-09-17T13:45:51.203Z,27.77
2018-09-17T13:48:21.907Z,27.70
2018-09-17T13:50:52.147Z,27.50
2018-09-17T13:53:22.683Z,27.47
2018-09-17T13:55:52.984Z,27.52
2018-09-17T13:58:23.486Z,27.34
2018-09-17T14:00:53.921Z,27.16
2018-09-17T14:03:24.215Z,27.26
2018-09-17T14:05:54.641Z,27.35
2018-09-17T14:08:25.122Z,27.23
2018-09-17T14:10:55.624Z,27.34
2018-09-17T14:13:26.361Z,27.14
2018-09-17T14:16:06.895Z,27.23
2018-09-17T14:18:38.063Z,27.37
2018-09-17T14:21:08.744Z,27.29
2018-09-17T14:23:39.135Z,27.18
2018-09-17T14:26:09.603Z,27.14
2018-09-17T14:28:40.114Z,27.19
2018-09-17T14:31:10.485Z,27.23
2018-09-17T14:33:41.543Z,27.21
2018-09-17T14:36:12.039Z,27.16
2018-09-17T14:38:42.384Z,27.17
2018-09-17T14:41:12.869Z,27.26
2018-09-17T14:43:43.483Z,27.21
2018-09-17T14:46:13.831Z,27.14
2018-09-17T14:48:44.522Z,27.15
2018-09-17T14:51:14.988Z,27.18
2018-09-17T14:53:45.331Z,26.95
2018-09-17T14:56:15.779Z,26.94
2018-09-17T14:58:46.395Z,26.91
2018-09-17T15:01:17.109Z,26.90
2018-09-17T15:03:47.452Z,26.82
2018-09-17T15:06:17.830Z,26.84
2018-09-17T15:08:48.288Z,26.83
2018-09-17T15:11:18.818Z,26.84
2018-09-17T15:13:49.372Z,26.80
2018-09-17T15:16:20.123Z,26.71
2018-09-17T15:18:50.548Z,26.66
2018-09-17T15:21:20.980Z,26.57
2018-09-17T15:23:51.327Z,26.63
2018-09-17T15:26:22.044Z,26.56
2018-09-17T15:28:52.435Z,26.51
2018-09-17T15:31:23.031Z,26.46
2018-09-17T15:33:53.404Z,26.32
2018-09-17T15:36:23.934Z,26.24
2018-09-17T15:38:54.424Z,26.27
2018-09-17T15:41:25.085Z,26.14
2018-09-17T15:43:55.276Z,26.09
2018-09-17T15:46:25.783Z,26.11
2018-09-17T15:48:56.155Z,26.06
2018-09-17T15:51:26.560Z,25.97
2018-09-17T15:53:56.943Z,25.96
2018-09-17T15:56:27.235Z,25.81
2018-09-17T15:58:57.659Z,25.73
2018-09-17T16:01:28.138Z,25.64
2018-09-17T16:03:59.307Z,25.53
2018-09-17T16:06:29.772Z,25.40
2018-09-17T16:09:00.332Z,25.28
2018-09-17T16:11:31.023Z,25.22
2018-09-17T16:14:01.344Z,25.11
2018-09-17T16:16:31.899Z,25.03
2018-09-17T16:19:02.036Z,24.94
2018-09-17T16:21:32.794Z,24.87
2018-09-17T16:24:03.233Z,24.75
2018-09-17T16:26:33.537Z,24.66
2018-09-17T16:29:04.156Z,24.59
2018-09-17T16:31:34.521Z,24.48
2018-09-17T16:34:04.977Z,24.39
2018-09-17T16:36:35.400Z,24.26
2018-09-17T16:39:08.057Z,24.16
2018-09-17T16:41:38.699Z,24.06
2018-09-17T16:44:09.272Z,23.91
2018-09-17T16:46:40.029Z,23.78
2018-09-17T16:49:10.649Z,23.63
2018-09-17T16:51:41.140Z,23.50
2018-09-17T16:54:11.616Z,23.33
2018-09-17T16:56:41.953Z,23.18
2018-09-17T16:59:12.486Z,23.05
2018-09-17T17:01:42.792Z,22.90
2018-09-17T17:04:13.162Z,22.78
2018-09-17T17:06:43.634Z,22.55
2018-09-17T17:09:13.871Z,22.42
2018-09-17T17:11:44.140Z,22.30
2018-09-17T17:14:14.495Z,22.11
2018-09-17T17:16:45.117Z,21.94
2018-09-17T17:19:15.595Z,21.81
2018-09-17T17:21:46.059Z,21.65
2018-09-17T17:24:16.573Z,21.51
2018-09-17T17:26:46.967Z,21.39
2018-09-17T17:29:17.573Z,21.21
2018-09-17T17:31:47.888Z,21.10
2018-09-17T17:34:18.294Z,20.96
2018-09-17T17:36:48.816Z,20.85
2018-09-17T17:39:19.410Z,20.73
2018-09-17T17:41:49.663Z,20.64
2018-09-17T17:44:20.238Z,20.54
2018-09-17T17:46:50.846Z,20.44
2018-09-17T17:49:21.364Z,20.34
2018-09-17T17:51:51.970Z,20.20
2018-09-17T17:54:22.478Z,20.07
2018-09-17T17:56:52.792Z,19.96
2018-09-17T17:59:23.271Z,19.85
2018-09-17T18:01:53.791Z,19.74
2018-09-17T18:04:24.288Z,19.63
2018-09-17T18:06:54.623Z,19.52
2018-09-17T18:09:25.168Z,19.43
2018-09-17T18:11:55.603Z,19.30
2018-09-17T18:14:26.176Z,19.21
2018-09-17T18:16:56.552Z,19.07
2018-09-17T18:19:26.937Z,19.04
2018-09-17T18:21:57.431Z,18.88
2018-09-17T18:24:28.296Z,18.79
2018-09-17T18:26:58.854Z,18.69
2018-09-17T18:29:29.323Z,18.59
2018-09-17T18:31:59.957Z,18.54
2018-09-17T18:34:30.448Z,18.52
2018-09-17T18:37:00.769Z,18.52
2018-09-17T18:39:31.244Z,18.49
2018-09-17T18:42:01.608Z,18.38
2018-09-17T18:44:32.113Z,18.32
2018-09-17T18:47:02.809Z,18.24
2018-09-17T18:49:33.293Z,18.19
2018-09-17T18:52:03.857Z,18.10
2018-09-17T18:54:34.375Z,18.05
2018-09-17T18:57:04.742Z,17.97
2018-09-17T18:59:35.580Z,17.89
2018-09-17T19:02:06.112Z,17.77
2018-09-17T19:04:36.588Z,17.65
2018-09-17T19:07:07.511Z,17.59
2018-09-17T19:09:50.228Z,17.54
2018-09-17T19:12:21.551Z,17.45
2018-09-17T19:14:56.887Z,17.44
2018-09-17T19:17:32.635Z,17.36
2018-09-17T19:20:03.231Z,17.29
2018-09-17T19:22:38.889Z,17.21
2018-09-17T19:25:10.848Z,17.11
2018-09-17T19:27:46.291Z,17.02
2018-09-17T19:30:17.011Z,16.98
2018-09-17T19:32:47.235Z,16.96
2018-09-17T19:35:17.707Z,16.86
2018-09-17T19:37:53.252Z,16.87
2018-09-17T19:40:23.596Z,16.74
2018-09-17T19:42:53.995Z,16.71
2018-09-17T19:45:29.536Z,16.72
2018-09-17T19:48:00.022Z,16.72
2018-09-17T19:50:35.775Z,16.62
2018-09-17T19:53:06.300Z,16.59
2018-09-17T19:55:36.746Z,16.56
2018-09-17T19:58:12.280Z,16.57
2018-09-17T20:00:42.799Z,16.56
2018-09-17T20:03:13.328Z,16.49
2018-09-17T20:05:48.823Z,16.60
2018-09-17T20:08:19.420Z,16.55
2018-09-17T20:10:50.116Z,16.53
2018-09-17T20:13:20.445Z,16.57
2018-09-17T20:15:50.759Z,16.46
2018-09-17T20:18:21.134Z,16.37
2018-09-17T20:20:51.621Z,16.41
2018-09-17T20:23:22.871Z,16.37
2018-09-17T20:25:53.187Z,16.33
2018-09-17T20:28:23.570Z,16.31
2018-09-17T20:30:54.592Z,16.25
2018-09-17T20:33:30.418Z,16.26
2018-09-17T20:36:01.113Z,16.33
2018-09-17T20:38:31.521Z,16.34
2018-09-17T20:41:01.842Z,16.29
2018-09-17T20:43:32.116Z,16.25
2018-09-17T20:46:02.621Z,16.30
2018-09-17T20:48:33.019Z,16.28
2018-09-17T20:51:03.477Z,16.26
2018-09-17T20:53:33.976Z,16.23
2018-09-17T20:56:04.318Z,16.21
2018-09-17T20:58:34.655Z,16.13
2018-09-17T21:01:05.230Z,16.12
2018-09-17T21:03:35.453Z,16.14
2018-09-17T21:06:05.899Z,16.24
2018-09-17T21:08:36.144Z,16.30
2018-09-17T21:11:06.324Z,16.35
2018-09-17T21:13:36.722Z,16.25
2018-09-17T21:16:07.217Z,16.15
2018-09-17T21:18:37.795Z,16.09
2018-09-17T21:21:08.194Z,16.05
2018-09-17T21:23:38.529Z,16.00
2018-09-17T21:26:09.220Z,15.95
2018-09-17T21:28:39.697Z,15.95
2018-09-17T21:31:10.143Z,15.89
2018-09-17T21:33:40.647Z,15.79
2018-09-17T21:36:11.163Z,15.70
2018-09-17T21:38:41.371Z,15.63
2018-09-17T21:41:11.904Z,15.58
2018-09-17T21:43:42.354Z,15.57
2018-09-17T21:46:12.790Z,15.52
2018-09-17T21:48:43.162Z,15.48
2018-09-17T21:51:13.628Z,15.45
2018-09-17T21:53:44.238Z,15.39
2018-09-17T21:56:14.787Z,15.36
2018-09-17T21:58:45.801Z,15.32
2018-09-17T22:01:20.444Z,15.25
2018-09-17T22:03:51.432Z,15.21
2018-09-17T22:06:21.949Z,15.13
2018-09-17T22:08:52.483Z,15.09
2018-09-17T22:11:23.152Z,15.08
2018-09-17T22:13:53.601Z,15.00
2018-09-17T22:16:24.267Z,14.96
2018-09-17T22:18:54.711Z,14.90
2018-09-17T22:21:25.188Z,14.86
2018-09-17T22:23:55.775Z,14.83
2018-09-17T22:26:26.228Z,14.83
2018-09-17T22:28:56.628Z,14.86
2018-09-17T22:31:27.520Z,14.85
2018-09-17T22:33:57.939Z,14.81
2018-09-17T22:36:28.398Z,14.80
2018-09-17T22:38:59.061Z,14.72
2018-09-17T22:41:29.484Z,14.67
2018-09-17T22:43:59.806Z,14.67
2018-09-17T22:46:30.082Z,14.70
2018-09-17T22:49:02.211Z,14.65
2018-09-17T22:51:32.719Z,14.64
2018-09-17T22:54:03.153Z,14.57
2018-09-17T22:56:33.625Z,14.65
2018-09-17T22:59:04.363Z,14.63
2018-09-17T23:01:34.788Z,14.57
2018-09-17T23:04:05.293Z,14.53
2018-09-17T23:06:35.605Z,14.49
2018-09-17T23:09:08.780Z,14.49
2018-09-17T23:11:39.292Z,14.44
2018-09-17T23:14:09.536Z,14.41
2018-09-17T23:16:40.448Z,14.39
2018-09-17T23:19:10.976Z,14.39
2018-09-17T23:21:41.463Z,14.35
2018-09-17T23:24:11.873Z,14.34
2018-09-17T23:26:42.387Z,14.35
2018-09-17T23:29:12.759Z,14.31
2018-09-17T23:31:43.064Z,14.31
2018-09-17T23:34:13.820Z,14.29
2018-09-17T23:36:44.276Z,14.30
2018-09-17T23:39:14.743Z,14.24
2018-09-17T23:41:45.149Z,14.22
2018-09-17T23:44:15.403Z,14.12
2018-09-17T23:46:45.904Z,14.08
2018-09-17T23:49:16.271Z,14.04
2018-09-17T23:51:46.639Z,14.03
2018-09-17T23:54:16.943Z,14.16
2018-09-17T23:56:47.367Z,14.14
2018-09-17T23:59:17.924Z,14.15
